createdAt,value
2022-08-31T00:00:08.301Z,17.07
2022-08-31T00:01:09.173Z,17.08
2022-08-31T00:02:10.152Z,17.07
2022-08-31T00:03:11.097Z,17.07
2022-08-31T00:04:11.947Z,17.08
2022-08-31T00:05:12.813Z,17.07
2022-08-31T00:06:13.686Z,17.08
2022-08-31T00:07:14.585Z,17.08
2022-08-31T00:08:15.448Z,17.08
2022-08-31T00:09:16.343Z,17.06
2022-08-31T00:10:17.221Z,17.04
2022-08-31T00:11:18.088Z,17.06
2022-08-31T00:12:18.969Z,17.06
2022-08-31T00:13:19.987Z,17.06
2022-08-31T00:14:20.347Z,17.04
2022-08-31T00:15:22.051Z,17.06
2022-08-31T00:16:21.973Z,17.04
2022-08-31T00:17:22.791Z,17.06
2022-08-31T00:18:23.686Z,17.06
2022-08-31T00:19:24.563Z,17.06
2022-08-31T00:20:33.735Z,17.04
2022-08-31T00:21:27.209Z,17.06
2022-08-31T00:22:27.090Z,17.04
2022-08-31T00:23:27.964Z,17.04
2022-08-31T00:24:28.862Z,17.06
2022-08-31T00:25:29.739Z,17.06
2022-08-31T00:26:30.639Z,17.04
2022-08-31T00:27:31.512Z,17.06
2022-08-31T00:28:32.386Z,17.04
2022-08-31T00:29:33.277Z,17.04
2022-08-31T00:30:34.161Z,17.04
2022-08-31T00:31:35.093Z,17.03
2022-08-31T00:32:35.950Z,17.04
2022-08-31T00:33:36.826Z,17.03
2022-08-31T00:34:37.711Z,17.03
2022-08-31T00:35:38.585Z,17.03
2022-08-31T00:36:39.465Z,17.03
2022-08-31T00:37:40.352Z,17.03
2022-08-31T00:38:41.220Z,17.03
2022-08-31T00:39:42.101Z,17.01
2022-08-31T00:40:44.955Z,17.01
2022-08-31T00:41:43.504Z,17.01
2022-08-31T00:42:44.382Z,17.01
2022-08-31T00:43:45.270Z,17.01
2022-08-31T00:44:46.162Z,17.01
2022-08-31T00:45:47.140Z,17.01
2022-08-31T00:46:48.003Z,17.01
2022-08-31T00:47:48.895Z,17.00
2022-08-31T00:48:49.806Z,17.03
2022-08-31T00:49:50.699Z,17.00
2022-08-31T00:50:51.602Z,17.00
2022-08-31T00:51:52.534Z,17.00
2022-08-31T00:52:53.372Z,16.98
2022-08-31T00:53:54.288Z,16.98
2022-08-31T00:54:55.164Z,16.96
2022-08-31T00:55:56.037Z,16.94
2022-08-31T00:56:56.928Z,16.93
2022-08-31T00:57:57.800Z,16.91
2022-08-31T00:58:58.689Z,16.89
2022-08-31T00:59:59.556Z,16.86
2022-08-31T01:01:00.510Z,16.86
2022-08-31T01:02:01.492Z,16.86
2022-08-31T01:03:02.351Z,16.85
2022-08-31T01:04:03.240Z,16.85
2022-08-31T01:05:04.118Z,16.85
2022-08-31T01:06:04.997Z,16.83
2022-08-31T01:07:05.887Z,16.85
2022-08-31T01:08:06.753Z,16.82
2022-08-31T01:09:07.637Z,16.81
2022-08-31T01:10:08.520Z,16.81
2022-08-31T01:11:09.391Z,16.81
2022-08-31T01:12:10.266Z,16.81
2022-08-31T01:13:11.210Z,16.81
2022-08-31T01:14:12.040Z,16.79
2022-08-31T01:15:12.930Z,16.78
2022-08-31T01:16:13.836Z,16.76
2022-08-31T01:17:14.671Z,16.76
2022-08-31T01:18:15.545Z,16.75
2022-08-31T01:19:16.290Z,16.75
2022-08-31T01:20:17.167Z,16.73
2022-08-31T01:21:18.050Z,16.71
2022-08-31T01:22:18.918Z,16.71
2022-08-31T01:23:19.999Z,16.70
2022-08-31T01:24:20.353Z,16.68
2022-08-31T01:25:21.235Z,16.70
2022-08-31T01:26:22.105Z,16.70
2022-08-31T01:27:22.989Z,16.70
2022-08-31T01:28:23.858Z,16.71
2022-08-31T01:29:24.746Z,16.73
2022-08-31T01:30:25.630Z,16.71
2022-08-31T01:31:26.616Z,16.73
2022-08-31T01:32:27.461Z,16.73
2022-08-31T01:33:28.341Z,16.71
2022-08-31T01:34:29.234Z,16.75
2022-08-31T01:35:30.115Z,16.71
2022-08-31T01:36:30.985Z,16.73
2022-08-31T01:37:31.870Z,16.73
2022-08-31T01:38:32.749Z,16.73
2022-08-31T01:39:33.633Z,16.73
2022-08-31T01:40:34.580Z,16.71
2022-08-31T01:41:35.434Z,16.73
2022-08-31T01:42:36.296Z,16.73
2022-08-31T01:43:37.170Z,16.71
2022-08-31T01:44:38.063Z,16.75
2022-08-31T01:45:38.948Z,16.73
2022-08-31T01:46:39.884Z,16.71
2022-08-31T01:47:40.762Z,16.73
2022-08-31T01:48:41.790Z,16.71
2022-08-31T01:49:42.600Z,16.71
2022-08-31T01:50:43.477Z,16.70
2022-08-31T01:51:44.366Z,16.71
2022-08-31T01:52:45.268Z,16.70
2022-08-31T01:53:48.492Z,16.70
2022-08-31T01:54:47.047Z,16.68
2022-08-31T01:55:47.921Z,16.68
2022-08-31T01:56:48.801Z,16.66
2022-08-31T01:57:49.695Z,16.66
2022-08-31T01:58:50.593Z,16.63
2022-08-31T01:59:51.465Z,16.60
2022-08-31T02:00:52.386Z,16.57
2022-08-31T02:01:53.401Z,16.53
2022-08-31T02:02:53.787Z,16.56
2022-08-31T02:03:57.031Z,16.52
2022-08-31T02:04:55.579Z,16.50
2022-08-31T02:07:05.387Z,16.50
2022-08-31T02:08:06.260Z,16.49
2022-08-31T02:09:07.148Z,16.46
2022-08-31T02:10:08.019Z,16.48
2022-08-31T02:11:08.892Z,16.48
2022-08-31T02:12:09.764Z,16.46
2022-08-31T02:13:10.779Z,16.48
2022-08-31T02:14:11.599Z,16.46
2022-08-31T02:15:12.478Z,16.45
2022-08-31T02:16:13.434Z,16.46
2022-08-31T02:17:14.253Z,16.45
2022-08-31T02:18:15.123Z,16.45
2022-08-31T02:19:16.056Z,16.45
2022-08-31T02:20:16.930Z,16.46
2022-08-31T02:21:17.809Z,16.46
2022-08-31T02:22:18.682Z,16.46
2022-08-31T02:23:19.786Z,16.46
2022-08-31T02:24:20.217Z,16.48
2022-08-31T02:25:21.083Z,16.46
2022-08-31T02:26:21.957Z,16.48
2022-08-31T02:27:22.842Z,16.48
2022-08-31T02:28:23.723Z,16.50
2022-08-31T02:29:24.613Z,16.48
2022-08-31T02:30:25.675Z,16.46
2022-08-31T02:31:26.564Z,16.49
2022-08-31T02:32:27.416Z,16.48
2022-08-31T02:33:28.294Z,16.48
2022-08-31T02:34:29.023Z,16.48
2022-08-31T02:35:29.894Z,16.49
2022-08-31T02:36:30.766Z,16.46
2022-08-31T02:37:31.310Z,16.49
2022-08-31T02:38:32.261Z,16.49
2022-08-31T02:39:33.140Z,16.48
2022-08-31T02:40:34.102Z,16.48
2022-08-31T02:41:34.983Z,16.48
2022-08-31T02:42:53.881Z,16.49
2022-08-31T02:43:37.623Z,16.49
2022-08-31T02:44:37.505Z,16.50
2022-08-31T02:45:38.386Z,16.50
2022-08-31T02:46:39.370Z,16.49
2022-08-31T02:47:39.759Z,16.50
2022-08-31T02:48:40.640Z,16.49
2022-08-31T02:49:41.516Z,16.50
2022-08-31T02:50:42.383Z,16.50
2022-08-31T02:51:43.266Z,16.48
2022-08-31T02:52:44.136Z,16.49
2022-08-31T02:53:45.026Z,16.49
2022-08-31T02:54:45.900Z,16.48
2022-08-31T02:55:46.781Z,16.48
2022-08-31T02:56:47.652Z,16.46
2022-08-31T02:57:48.533Z,16.45
2022-08-31T02:58:49.415Z,16.45
2022-08-31T02:59:50.295Z,16.45
2022-08-31T03:00:51.167Z,16.46
2022-08-31T03:01:52.118Z,16.42
2022-08-31T03:02:53.041Z,16.43
2022-08-31T03:03:53.902Z,16.43
2022-08-31T03:04:54.775Z,16.45
2022-08-31T03:05:55.645Z,16.43
2022-08-31T03:06:56.518Z,16.43
2022-08-31T03:07:57.394Z,16.43
2022-08-31T03:08:58.277Z,16.41
2022-08-31T03:09:59.158Z,16.42
2022-08-31T03:11:00.030Z,16.42
2022-08-31T03:12:00.912Z,16.41
2022-08-31T03:13:01.784Z,16.42
2022-08-31T03:14:02.674Z,16.41
2022-08-31T03:15:03.547Z,16.42
2022-08-31T03:16:04.471Z,16.39
2022-08-31T03:17:05.316Z,16.41
2022-08-31T03:18:07.002Z,16.39
2022-08-31T03:19:07.031Z,16.42
2022-08-31T03:20:07.911Z,16.39
2022-08-31T03:21:08.785Z,16.38
2022-08-31T03:22:09.664Z,16.39
2022-08-31T03:23:10.640Z,16.38
2022-08-31T03:24:11.037Z,16.35
2022-08-31T03:25:11.911Z,16.35
2022-08-31T03:26:12.782Z,16.34
2022-08-31T03:27:13.654Z,16.33
2022-08-31T03:28:14.533Z,16.31
2022-08-31T03:29:15.415Z,16.30
2022-08-31T03:30:16.286Z,16.28
2022-08-31T03:31:17.174Z,16.28
2022-08-31T03:32:18.039Z,16.27
2022-08-31T03:33:19.140Z,16.25
2022-08-31T03:34:19.560Z,16.27
2022-08-31T03:35:20.433Z,16.25
2022-08-31T03:36:21.315Z,16.24
2022-08-31T03:37:22.187Z,16.24
2022-08-31T03:38:23.066Z,16.24
2022-08-31T03:39:23.946Z,16.21
2022-08-31T03:40:24.957Z,16.21
2022-08-31T03:41:25.324Z,16.20
2022-08-31T03:42:26.220Z,16.20
2022-08-31T03:43:26.882Z,16.15
2022-08-31T03:44:27.764Z,16.12
2022-08-31T03:45:28.636Z,16.09
2022-08-31T03:46:29.588Z,16.05
2022-08-31T03:47:30.408Z,16.04
2022-08-31T03:48:31.380Z,16.05
2022-08-31T03:49:32.251Z,16.05
2022-08-31T03:50:33.122Z,16.01
2022-08-31T03:51:33.995Z,16.00
2022-08-31T03:52:34.873Z,16.01
2022-08-31T03:53:35.756Z,16.00
2022-08-31T03:54:36.636Z,16.01
2022-08-31T03:55:37.508Z,15.97
2022-08-31T03:56:38.379Z,15.94
2022-08-31T03:57:39.299Z,15.94
2022-08-31T03:58:40.141Z,15.93
2022-08-31T03:59:41.014Z,15.92
2022-08-31T04:00:41.894Z,15.92
2022-08-31T04:01:42.851Z,15.89
2022-08-31T04:02:43.788Z,15.87
2022-08-31T04:03:44.641Z,15.87
2022-08-31T04:04:45.511Z,15.87
2022-08-31T04:05:46.383Z,15.84
2022-08-31T04:06:47.253Z,15.86
2022-08-31T04:07:48.125Z,15.84
2022-08-31T04:08:49.039Z,15.86
2022-08-31T04:09:49.911Z,15.86
2022-08-31T04:10:50.789Z,15.87
2022-08-31T04:11:52.191Z,15.86
2022-08-31T04:12:52.556Z,15.86
2022-08-31T04:13:53.438Z,15.86
2022-08-31T04:14:54.309Z,15.86
2022-08-31T04:15:55.258Z,15.86
2022-08-31T04:16:56.124Z,15.86
2022-08-31T04:17:57.238Z,15.82
2022-08-31T04:18:57.905Z,15.83
2022-08-31T04:19:58.777Z,15.80
2022-08-31T04:20:59.648Z,15.78
2022-08-31T04:22:00.529Z,15.78
2022-08-31T04:23:01.402Z,15.76
2022-08-31T04:24:02.283Z,15.75
2022-08-31T04:25:03.156Z,15.72
2022-08-31T04:26:04.026Z,15.71
2022-08-31T04:27:04.901Z,15.68
2022-08-31T04:28:05.780Z,15.68
2022-08-31T04:29:10.811Z,15.62
2022-08-31T04:30:08.449Z,15.54
2022-08-31T04:31:08.379Z,15.53
2022-08-31T04:32:09.201Z,15.50
2022-08-31T04:33:10.073Z,15.49
2022-08-31T04:34:10.966Z,15.49
2022-08-31T04:35:11.840Z,15.46
2022-08-31T04:36:12.714Z,15.47
2022-08-31T04:37:13.583Z,15.46
2022-08-31T04:38:14.400Z,15.44
2022-08-31T04:39:15.281Z,15.44
2022-08-31T04:40:16.018Z,15.43
2022-08-31T04:41:16.849Z,15.43
2022-08-31T04:42:17.731Z,15.41
2022-08-31T04:43:18.779Z,15.41
2022-08-31T04:44:20.288Z,15.41
2022-08-31T04:45:20.214Z,15.41
2022-08-31T04:46:21.121Z,15.39
2022-08-31T04:47:21.901Z,15.41
2022-08-31T04:48:22.727Z,15.43
2022-08-31T04:49:23.556Z,15.41
2022-08-31T04:50:24.374Z,15.41
2022-08-31T04:51:25.192Z,15.43
2022-08-31T04:52:28.344Z,15.43
2022-08-31T04:53:26.810Z,15.43
2022-08-31T04:54:27.647Z,15.44
2022-08-31T04:55:28.518Z,15.44
2022-08-31T04:56:29.258Z,15.43
2022-08-31T04:57:30.074Z,15.44
2022-08-31T04:58:30.892Z,15.43
2022-08-31T04:59:31.735Z,15.43
2022-08-31T05:00:32.550Z,15.41
2022-08-31T05:01:38.649Z,15.39
2022-08-31T05:02:35.113Z,15.31
2022-08-31T05:03:34.966Z,15.27
2022-08-31T05:04:35.812Z,15.23
2022-08-31T05:05:36.631Z,15.20
2022-08-31T05:06:37.469Z,15.16
2022-08-31T05:07:38.292Z,15.11
2022-08-31T05:08:39.125Z,15.07
2022-08-31T05:09:39.943Z,15.01
2022-08-31T05:10:40.770Z,14.98
2022-08-31T05:11:41.600Z,14.95
2022-08-31T05:12:42.415Z,14.92
2022-08-31T05:13:43.246Z,14.89
2022-08-31T05:14:44.061Z,14.88
2022-08-31T05:15:44.907Z,14.86
2022-08-31T05:16:45.696Z,14.86
2022-08-31T05:17:46.515Z,14.89
2022-08-31T05:18:47.351Z,14.91
2022-08-31T05:19:48.170Z,14.89
2022-08-31T05:20:48.997Z,14.89
2022-08-31T05:21:49.828Z,14.92
2022-08-31T05:22:50.636Z,14.95
2022-08-31T05:23:51.465Z,14.95
2022-08-31T05:24:52.278Z,14.96
2022-08-31T05:25:53.098Z,14.98
2022-08-31T05:26:53.913Z,14.96
2022-08-31T05:27:54.733Z,14.96
2022-08-31T05:28:55.558Z,14.95
2022-08-31T05:29:56.377Z,14.94
2022-08-31T05:30:57.272Z,14.91
2022-08-31T05:31:58.047Z,14.91
2022-08-31T05:32:58.983Z,14.86
2022-08-31T05:33:59.811Z,14.83
2022-08-31T05:35:00.637Z,14.83
2022-08-31T05:36:01.455Z,14.84
2022-08-31T05:37:02.273Z,14.81
2022-08-31T05:38:03.090Z,14.83
2022-08-31T05:39:03.916Z,14.81
2022-08-31T05:40:04.768Z,14.83
2022-08-31T05:41:05.554Z,14.81
2022-08-31T05:42:06.373Z,14.81
2022-08-31T05:43:07.198Z,14.81
2022-08-31T05:44:08.025Z,14.83
2022-08-31T05:45:08.852Z,14.83
2022-08-31T05:46:10.584Z,14.86
2022-08-31T05:47:10.582Z,14.86
2022-08-31T05:48:11.358Z,14.88
2022-08-31T05:49:12.193Z,14.89
2022-08-31T05:50:13.013Z,14.89
2022-08-31T05:51:13.840Z,14.91
2022-08-31T05:52:14.797Z,14.92
2022-08-31T05:53:15.614Z,14.94
2022-08-31T05:54:16.442Z,14.96
2022-08-31T05:55:17.270Z,14.99
2022-08-31T05:56:19.279Z,14.96
2022-08-31T05:57:18.599Z,14.99
2022-08-31T05:58:19.416Z,15.01
2022-08-31T05:59:20.242Z,15.01
2022-08-31T06:00:21.064Z,15.02
2022-08-31T06:01:22.099Z,15.07
2022-08-31T06:02:22.928Z,15.06
2022-08-31T06:03:23.464Z,15.09
2022-08-31T06:04:24.292Z,15.09
2022-08-31T06:05:25.217Z,15.10
2022-08-31T06:06:25.988Z,15.06
2022-08-31T06:07:26.804Z,15.07
2022-08-31T06:08:27.732Z,15.07
2022-08-31T06:09:28.498Z,15.07
2022-08-31T06:10:29.317Z,15.03
2022-08-31T06:11:30.133Z,15.03
2022-08-31T06:12:30.985Z,15.06
2022-08-31T06:13:31.796Z,15.03
2022-08-31T06:14:32.632Z,15.06
2022-08-31T06:15:33.449Z,15.07
2022-08-31T06:16:34.313Z,15.06
2022-08-31T06:17:35.135Z,15.01
2022-08-31T06:18:35.963Z,14.96
2022-08-31T06:19:36.805Z,14.92
2022-08-31T06:20:37.628Z,14.88
2022-08-31T06:21:38.450Z,14.88
2022-08-31T06:22:39.401Z,14.86
2022-08-31T06:23:40.225Z,14.86
2022-08-31T06:24:41.066Z,14.86
2022-08-31T06:25:41.885Z,14.86
2022-08-31T06:26:42.729Z,14.88
2022-08-31T06:27:43.532Z,14.89
2022-08-31T06:28:44.363Z,14.89
2022-08-31T06:29:45.204Z,14.89
2022-08-31T06:30:54.957Z,14.92
2022-08-31T06:31:47.781Z,14.92
2022-08-31T06:32:47.568Z,14.92
2022-08-31T06:33:48.393Z,14.95
2022-08-31T06:34:49.232Z,14.95
2022-08-31T06:35:50.048Z,14.98
2022-08-31T06:36:50.869Z,14.99
2022-08-31T06:37:51.695Z,15.01
2022-08-31T06:38:52.531Z,15.01
2022-08-31T06:39:53.361Z,15.03
2022-08-31T06:40:54.206Z,15.03
2022-08-31T06:41:55.029Z,15.07
2022-08-31T06:42:55.843Z,15.07
2022-08-31T06:43:56.669Z,15.09
2022-08-31T06:44:57.489Z,15.11
2022-08-31T06:45:58.399Z,15.13
2022-08-31T06:46:59.211Z,15.13
2022-08-31T06:48:00.050Z,15.14
2022-08-31T06:49:00.883Z,15.17
2022-08-31T06:50:01.699Z,15.16
2022-08-31T06:51:02.518Z,15.20
2022-08-31T06:52:03.334Z,15.19
2022-08-31T06:53:04.153Z,15.21
2022-08-31T06:54:21.758Z,15.21
2022-08-31T06:55:06.746Z,15.23
2022-08-31T06:56:06.563Z,15.25
2022-08-31T06:57:08.266Z,15.25
2022-08-31T06:58:08.082Z,15.25
2022-08-31T06:59:08.913Z,15.27
2022-08-31T07:00:09.728Z,15.25
2022-08-31T07:01:10.669Z,15.25
2022-08-31T07:02:11.633Z,15.27
2022-08-31T07:03:11.994Z,15.27
2022-08-31T07:04:12.827Z,15.25
2022-08-31T07:05:20.022Z,15.25
2022-08-31T07:06:15.358Z,15.23
2022-08-31T07:07:15.179Z,15.27
2022-08-31T07:08:16.023Z,15.25
2022-08-31T07:09:16.844Z,15.23
2022-08-31T07:10:17.682Z,15.25
2022-08-31T07:11:18.505Z,15.25
2022-08-31T07:12:19.331Z,15.27
2022-08-31T07:13:20.349Z,15.28
2022-08-31T07:14:20.736Z,15.28
2022-08-31T07:15:21.559Z,15.27
2022-08-31T07:16:22.465Z,15.28
2022-08-31T07:17:23.315Z,15.27
2022-08-31T07:18:24.142Z,15.27
2022-08-31T07:19:24.815Z,15.29
2022-08-31T07:20:25.628Z,15.27
2022-08-31T07:21:26.449Z,15.28
2022-08-31T07:22:27.275Z,15.29
2022-08-31T07:23:28.099Z,15.29
2022-08-31T07:24:28.956Z,15.27
2022-08-31T07:25:29.774Z,15.29
2022-08-31T07:26:34.475Z,15.28
2022-08-31T07:27:32.322Z,15.29
2022-08-31T07:28:32.147Z,15.28
2022-08-31T07:29:32.977Z,15.31
2022-08-31T07:30:33.866Z,15.28
2022-08-31T07:31:34.634Z,15.31
2022-08-31T07:32:35.468Z,15.29
2022-08-31T07:33:36.297Z,15.29
2022-08-31T07:34:37.124Z,15.29
2022-08-31T07:35:37.945Z,15.29
2022-08-31T07:36:38.788Z,15.28
2022-08-31T07:37:39.591Z,15.28
2022-08-31T07:38:40.408Z,15.28
2022-08-31T07:39:41.238Z,15.27
2022-08-31T07:40:42.131Z,15.28
2022-08-31T07:41:42.920Z,15.27
2022-08-31T07:42:43.756Z,15.28
2022-08-31T07:43:44.565Z,15.27
2022-08-31T07:44:51.980Z,15.27
2022-08-31T07:45:47.199Z,15.27
2022-08-31T07:46:46.994Z,15.27
2022-08-31T07:47:47.540Z,15.27
2022-08-31T07:48:48.361Z,15.25
2022-08-31T07:49:49.180Z,15.25
2022-08-31T07:50:50.016Z,15.28
2022-08-31T07:51:50.835Z,15.28
2022-08-31T07:52:51.653Z,15.28
2022-08-31T07:53:52.491Z,15.28
2022-08-31T07:54:53.308Z,15.28
2022-08-31T07:55:54.131Z,15.28
2022-08-31T07:56:54.977Z,15.28
2022-08-31T07:57:55.793Z,15.28
2022-08-31T07:58:56.623Z,15.29
2022-08-31T07:59:57.441Z,15.29
2022-08-31T08:00:58.257Z,15.31
2022-08-31T08:01:59.168Z,15.32
2022-08-31T08:02:59.977Z,15.32
2022-08-31T08:04:00.809Z,15.35
2022-08-31T08:05:01.652Z,15.34
2022-08-31T08:06:02.455Z,15.35
2022-08-31T08:07:03.274Z,15.38
2022-08-31T08:08:04.093Z,15.39
2022-08-31T08:09:22.446Z,15.39
2022-08-31T08:10:06.654Z,15.43
2022-08-31T08:11:06.467Z,15.46
2022-08-31T08:12:07.543Z,15.46
2022-08-31T08:13:07.974Z,15.49
2022-08-31T08:14:08.944Z,15.50
2022-08-31T08:15:09.697Z,15.51
2022-08-31T08:16:10.600Z,15.53
2022-08-31T08:17:11.415Z,15.56
2022-08-31T08:18:12.242Z,15.59
2022-08-31T08:19:13.069Z,15.60
2022-08-31T08:20:14.138Z,15.64
2022-08-31T08:21:14.427Z,15.64
2022-08-31T08:22:26.114Z,15.67
2022-08-31T08:23:18.165Z,15.67
2022-08-31T08:24:16.299Z,15.69
2022-08-31T08:25:16.831Z,15.69
2022-08-31T08:26:21.183Z,15.71
2022-08-31T08:27:18.516Z,15.68
2022-08-31T08:28:41.501Z,15.67
2022-08-31T08:29:21.056Z,15.65
2022-08-31T08:30:20.914Z,15.67
2022-08-31T08:31:21.740Z,15.65
2022-08-31T08:32:22.549Z,15.65
2022-08-31T08:33:23.377Z,15.67
2022-08-31T08:34:31.516Z,15.67
2022-08-31T08:35:25.930Z,15.68
2022-08-31T08:36:25.740Z,15.69
2022-08-31T08:37:47.476Z,15.72
2022-08-31T08:38:28.281Z,15.75
2022-08-31T08:39:28.109Z,15.74
2022-08-31T08:40:29.013Z,15.76
2022-08-31T08:41:29.790Z,15.80
2022-08-31T08:42:30.608Z,15.80
2022-08-31T08:43:31.453Z,15.83
2022-08-31T08:44:32.276Z,15.84
2022-08-31T08:45:33.134Z,15.83
2022-08-31T08:46:35.504Z,15.84
2022-08-31T08:47:38.636Z,15.82
2022-08-31T08:48:35.343Z,15.82
2022-08-31T08:49:36.164Z,15.83
2022-08-31T08:50:36.992Z,15.82
2022-08-31T08:51:37.807Z,15.83
2022-08-31T08:52:38.625Z,15.84
2022-08-31T08:53:39.473Z,15.86
2022-08-31T08:54:40.284Z,15.89
2022-08-31T08:55:41.112Z,15.87
2022-08-31T08:56:41.939Z,15.89
2022-08-31T08:57:42.786Z,15.90
2022-08-31T08:58:43.620Z,15.90
2022-08-31T08:59:44.457Z,15.92
2022-08-31T09:00:45.265Z,15.93
2022-08-31T09:01:46.161Z,15.93
2022-08-31T09:02:47.002Z,15.93
2022-08-31T09:03:47.702Z,15.93
2022-08-31T09:04:48.541Z,15.90
2022-08-31T09:05:49.354Z,15.89
2022-08-31T09:06:54.151Z,15.89
2022-08-31T09:07:50.772Z,15.86
2022-08-31T09:08:51.607Z,15.84
2022-08-31T09:09:52.417Z,15.83
2022-08-31T09:10:53.261Z,15.84
2022-08-31T09:11:54.078Z,15.84
2022-08-31T09:12:54.924Z,15.86
2022-08-31T09:13:55.753Z,15.86
2022-08-31T09:14:56.580Z,15.89
2022-08-31T09:15:57.482Z,15.89
2022-08-31T09:16:58.286Z,15.89
2022-08-31T09:17:59.999Z,15.92
2022-08-31T09:18:59.872Z,15.93
2022-08-31T09:20:00.694Z,15.94
2022-08-31T09:21:01.508Z,15.96
2022-08-31T09:22:02.337Z,15.97
2022-08-31T09:23:03.172Z,16.00
2022-08-31T09:24:04.005Z,16.02
2022-08-31T09:25:04.833Z,16.02
2022-08-31T09:26:08.353Z,16.05
2022-08-31T09:27:06.430Z,16.04
2022-08-31T09:28:07.250Z,16.09
2022-08-31T09:29:08.106Z,16.11
2022-08-31T09:30:08.929Z,16.12
2022-08-31T09:31:09.832Z,16.14
2022-08-31T09:32:10.626Z,16.15
2022-08-31T09:33:11.546Z,16.17
2022-08-31T09:34:12.352Z,16.17
2022-08-31T09:35:13.189Z,16.20
2022-08-31T09:36:14.011Z,16.21
2022-08-31T09:37:14.837Z,16.23
2022-08-31T09:38:15.656Z,16.21
2022-08-31T09:39:16.472Z,16.23
2022-08-31T09:40:23.304Z,16.23
2022-08-31T09:41:19.016Z,16.21
2022-08-31T09:42:18.506Z,16.23
2022-08-31T09:43:19.474Z,16.21
2022-08-31T09:44:20.315Z,16.20
2022-08-31T09:45:21.244Z,16.20
2022-08-31T09:46:22.092Z,16.17
2022-08-31T09:47:22.923Z,16.15
2022-08-31T09:48:23.749Z,16.14
2022-08-31T09:49:24.586Z,16.15
2022-08-31T09:50:25.415Z,16.17
2022-08-31T09:51:26.227Z,16.20
2022-08-31T09:52:27.066Z,16.20
2022-08-31T09:53:27.885Z,16.23
2022-08-31T09:54:28.711Z,16.23
2022-08-31T09:55:29.529Z,16.23
2022-08-31T09:56:30.356Z,16.25
2022-08-31T09:57:31.178Z,16.25
2022-08-31T09:58:32.006Z,16.28
2022-08-31T09:59:32.834Z,16.28
2022-08-31T10:00:33.652Z,16.28
2022-08-31T10:01:34.577Z,16.27
2022-08-31T10:02:35.359Z,16.28
2022-08-31T10:03:36.188Z,16.31
2022-08-31T10:04:37.125Z,16.30
2022-08-31T10:05:37.910Z,16.31
2022-08-31T10:06:38.724Z,16.30
2022-08-31T10:07:39.553Z,16.31
2022-08-31T10:08:40.387Z,16.31
2022-08-31T10:09:41.221Z,16.31
2022-08-31T10:10:41.903Z,16.30
2022-08-31T10:11:42.730Z,16.33
2022-08-31T10:12:43.547Z,16.31
2022-08-31T10:13:44.384Z,16.30
2022-08-31T10:14:45.215Z,16.30
2022-08-31T10:15:46.089Z,16.31
2022-08-31T10:16:46.883Z,16.31
2022-08-31T10:17:47.696Z,16.30
2022-08-31T10:18:48.524Z,16.30
2022-08-31T10:19:49.358Z,16.30
2022-08-31T10:20:50.173Z,16.28
2022-08-31T10:21:50.999Z,16.30
2022-08-31T10:22:51.829Z,16.31
2022-08-31T10:23:52.660Z,16.30
2022-08-31T10:24:53.478Z,16.33
2022-08-31T10:25:54.306Z,16.31
2022-08-31T10:26:55.123Z,16.30
2022-08-31T10:27:55.944Z,16.33
2022-08-31T10:28:56.777Z,16.31
2022-08-31T10:29:57.597Z,16.31
2022-08-31T10:30:58.496Z,16.33
2022-08-31T10:31:59.273Z,16.33
2022-08-31T10:33:00.093Z,16.31
2022-08-31T10:34:00.921Z,16.33
2022-08-31T10:35:01.763Z,16.31
2022-08-31T10:36:02.580Z,16.31
2022-08-31T10:37:03.393Z,16.28
2022-08-31T10:38:04.212Z,16.28
2022-08-31T10:39:05.041Z,16.27
2022-08-31T10:40:05.935Z,16.27
2022-08-31T10:41:06.733Z,16.25
2022-08-31T10:42:07.562Z,16.24
2022-08-31T10:43:08.379Z,16.23
2022-08-31T10:44:09.215Z,16.20
2022-08-31T10:45:10.031Z,16.20
2022-08-31T10:46:10.942Z,16.15
2022-08-31T10:47:21.557Z,16.14
2022-08-31T10:48:13.424Z,16.11
2022-08-31T10:49:13.261Z,16.08
2022-08-31T10:50:14.076Z,16.07
2022-08-31T10:51:14.927Z,16.05
2022-08-31T10:52:15.756Z,16.04
2022-08-31T10:53:16.600Z,16.05
2022-08-31T10:54:17.428Z,16.02
2022-08-31T10:55:18.238Z,16.05
2022-08-31T10:56:19.061Z,16.04
2022-08-31T10:57:22.345Z,16.02
2022-08-31T10:58:20.835Z,16.02
2022-08-31T10:59:21.673Z,16.02
2022-08-31T11:00:22.491Z,16.01
2022-08-31T11:01:23.393Z,16.00
2022-08-31T11:02:24.178Z,15.97
2022-08-31T11:03:25.057Z,15.96
2022-08-31T11:04:25.905Z,15.93
2022-08-31T11:05:26.636Z,15.90
2022-08-31T11:06:27.460Z,15.90
2022-08-31T11:07:28.283Z,15.87
2022-08-31T11:08:29.100Z,15.89
2022-08-31T11:09:29.936Z,15.87
2022-08-31T11:10:30.745Z,15.84
2022-08-31T11:11:31.583Z,15.87
2022-08-31T11:12:32.419Z,15.84
2022-08-31T11:13:33.227Z,15.86
2022-08-31T11:14:34.064Z,15.84
2022-08-31T11:15:34.931Z,15.86
2022-08-31T11:16:35.719Z,15.87
2022-08-31T11:17:36.511Z,15.87
2022-08-31T11:18:37.350Z,15.86
2022-08-31T11:19:38.179Z,15.87
2022-08-31T11:20:39.078Z,15.87
2022-08-31T11:21:39.905Z,15.89
2022-08-31T11:22:40.725Z,15.89
2022-08-31T11:23:42.273Z,15.92
2022-08-31T11:24:42.396Z,15.89
2022-08-31T11:25:43.217Z,15.90
2022-08-31T11:26:44.038Z,15.90
2022-08-31T11:27:44.855Z,15.92
2022-08-31T11:28:45.682Z,15.93
2022-08-31T11:29:46.514Z,15.92
2022-08-31T11:30:50.981Z,15.94
2022-08-31T11:31:48.264Z,15.96
2022-08-31T11:32:49.048Z,15.96
2022-08-31T11:34:14.261Z,16.00
2022-08-31T11:34:51.610Z,16.00
2022-08-31T11:35:51.507Z,16.01
2022-08-31T11:36:52.258Z,16.02
2022-08-31T11:37:53.133Z,16.04
2022-08-31T11:38:53.971Z,16.04
2022-08-31T11:39:54.824Z,16.05
2022-08-31T11:40:55.660Z,16.05
2022-08-31T11:41:56.478Z,16.08
2022-08-31T11:42:57.306Z,16.09
2022-08-31T11:43:57.865Z,16.09
2022-08-31T11:44:58.699Z,16.09
2022-08-31T11:45:59.617Z,16.12
2022-08-31T11:47:00.415Z,16.12
2022-08-31T11:48:01.329Z,16.15
2022-08-31T11:49:02.303Z,16.15
2022-08-31T11:50:03.133Z,16.15
2022-08-31T11:51:03.953Z,16.15
2022-08-31T11:52:04.776Z,16.20
2022-08-31T11:53:05.606Z,16.21
2022-08-31T11:54:06.426Z,16.21
2022-08-31T11:55:07.264Z,16.23
2022-08-31T11:56:08.081Z,16.24
2022-08-31T11:57:08.903Z,16.25
2022-08-31T11:58:09.720Z,16.25
2022-08-31T11:59:10.546Z,16.27
2022-08-31T12:00:11.385Z,16.25
2022-08-31T12:01:12.205Z,16.27
2022-08-31T12:02:13.086Z,16.25
2022-08-31T12:03:13.910Z,16.25
2022-08-31T12:04:14.859Z,16.25
2022-08-31T12:05:15.723Z,16.25
2022-08-31T12:06:16.507Z,16.24
2022-08-31T12:07:17.336Z,16.23
2022-08-31T12:08:18.152Z,16.20
2022-08-31T12:09:18.980Z,16.17
2022-08-31T12:10:22.055Z,16.15
2022-08-31T12:11:20.437Z,16.15
2022-08-31T12:12:21.257Z,16.14
2022-08-31T12:13:22.074Z,16.15
2022-08-31T12:14:22.892Z,16.12
2022-08-31T12:15:23.720Z,16.14
2022-08-31T12:16:24.619Z,16.12
2022-08-31T12:17:25.402Z,16.11
2022-08-31T12:18:26.227Z,16.12
2022-08-31T12:19:27.056Z,16.14
2022-08-31T12:20:27.886Z,16.15
2022-08-31T12:21:28.713Z,16.14
2022-08-31T12:22:29.532Z,16.14
2022-08-31T12:23:31.906Z,16.15
2022-08-31T12:24:30.850Z,16.14
2022-08-31T12:25:31.678Z,16.15
2022-08-31T12:26:32.499Z,16.14
2022-08-31T12:27:33.329Z,16.14
2022-08-31T12:28:34.145Z,16.12
2022-08-31T12:29:34.992Z,16.12
2022-08-31T12:30:35.811Z,16.11
2022-08-31T12:31:36.679Z,16.11
2022-08-31T12:32:37.460Z,16.09
2022-08-31T12:33:38.295Z,16.09
2022-08-31T12:34:39.116Z,16.09
2022-08-31T12:35:39.975Z,16.11
2022-08-31T12:36:40.783Z,16.08
2022-08-31T12:37:41.602Z,16.11
2022-08-31T12:38:42.431Z,16.11
2022-08-31T12:39:43.256Z,16.08
2022-08-31T12:40:44.222Z,16.09
2022-08-31T12:41:45.052Z,16.08
2022-08-31T12:42:45.870Z,16.07
2022-08-31T12:43:46.497Z,16.05
2022-08-31T12:44:47.319Z,16.02
2022-08-31T12:45:48.160Z,16.02
2022-08-31T12:46:49.094Z,16.02
2022-08-31T12:47:49.651Z,16.01
2022-08-31T12:48:50.262Z,16.01
2022-08-31T12:49:51.070Z,16.01
2022-08-31T12:50:51.899Z,16.00
2022-08-31T12:51:52.725Z,16.01
2022-08-31T12:52:53.544Z,15.97
2022-08-31T12:53:54.387Z,15.96
2022-08-31T12:54:56.521Z,15.96
2022-08-31T12:55:55.879Z,15.94
2022-08-31T12:56:56.699Z,15.93
2022-08-31T12:57:57.517Z,15.92
2022-08-31T12:58:58.352Z,15.92
2022-08-31T13:00:01.680Z,15.92
2022-08-31T13:00:59.835Z,15.90
2022-08-31T13:02:00.527Z,15.90
2022-08-31T13:03:01.003Z,15.90
2022-08-31T13:04:01.826Z,15.90